Terminal Aerodrome Forecast
Issued by NWS

Home | Current Version | Previous Version | Text Only | Print | Product List | Glossary On
Versions: 1 2 3 4 5 6 7 8 9 10 11 12 13 14 15 16 17 18 19
602
FTUS41 KPHI 201959 AAA
TAFPNE
TAF AMD
KPNE 201959Z 2020/2118 14005KT 5SM -RA SCT015 OVC060
     FM202100 14006KT 4SM -RA BR BKN015 OVC030
     FM202300 15004KT 3SM BR SCT007 OVC015
     FM210100 16004KT 6SM BR BKN007 OVC015
     FM210500 18003KT 2SM BR OVC003
     FM211400 23005KT 5SM BR BKN008
     FM211700 22006KT P6SM FEW009 BKN020=

USA.gov is the U.S. government's official web portal to all federal, state and local government web resources and services.